Time;durP1;ratioP1;P1;durP2;ratioP2;P2;SDS_P1;SDS_P2;PMS_P1;PMS_P2;Temp;Humidity;BMP_temperature;BMP_pressure;BME280_temperature;BME280_humidity;BME280_pressure;Samples;Min_cycle;Max_cycle;Signal;HPM_P1;HPM_P2
2023/08/07 07:14:29;;;;;;;2.58;1.50;;;;;;;;;;10480347;28;20041;-80
2023/08/07 07:19:30;;;;;;;3.83;1.48;;;;;;;;;;10473571;28;20168;-81
2023/08/07 07:24:31;;;;;;;2.90;1.67;;;;;;;;;;10456159;28;20132;-81
2023/08/07 07:29:33;;;;;;;3.58;1.45;;;;;;;;;;10456861;28;20596;-81
2023/08/07 07:34:34;;;;;;;3.20;2.15;;;;;;;;;;10456273;28;20037;-81
2023/08/07 07:39:36;;;;;;;4.70;1.70;;;;;;;;;;10460993;28;20030;-81
2023/08/07 07:44:38;;;;;;;1.63;1.25;;;;;;;;;;10484670;28;20033;-82
2023/08/07 07:49:39;;;;;;;2.55;1.40;;;;;;;;;;10487167;28;20396;-81
2023/08/07 07:54:42;;;;;;;2.58;1.67;;;;;;;;;;10459649;28;20443;-83
2023/08/07 07:59:52;;;;;;;4.15;1.90;;;;;;;;;;10457747;28;20518;-83
2023/08/07 08:05:41;;;;;;;2.67;1.60;;;;;;;;;;10387589;28;20151;-82
2023/08/07 08:10:48;;;;;;;2.15;1.13;;;;;;;;;;10454940;28;20120;-86
2023/08/07 08:16:12;;;;;;;2.92;1.52;;;;;;;;;;10435902;28;20118;-82
2023/08/07 08:21:13;;;;;;;2.95;1.35;;;;;;;;;;10450326;28;20037;-80
2023/08/07 08:26:22;;;;;;;3.40;1.60;;;;;;;;;;10448384;28;20048;-81
2023/08/07 08:32:11;;;;;;;4.57;1.75;;;;;;;;;;10452210;28;20045;-81
2023/08/07 08:37:12;;;;;;;3.90;1.85;;;;;;;;;;10419728;28;20035;-82
2023/08/07 08:42:13;;;;;;;2.50;1.60;;;;;;;;;;10447733;28;20055;-81
2023/08/07 08:47:15;;;;;;;2.85;1.52;;;;;;;;;;10449201;28;20484;-82
2023/08/07 08:52:23;;;;;;;4.90;1.77;;;;;;;;;;10461670;28;20085;-81
2023/08/07 08:57:28;;;;;;;5.32;1.85;;;;;;;;;;10485912;28;20120;-81
2023/08/07 09:02:31;;;;;;;5.05;2.67;;;;;;;;;;10451079;28;20116;-80
2023/08/07 09:07:32;;;;;;;6.72;2.92;;;;;;;;;;10437824;28;20036;-81
2023/08/07 09:12:42;;;;;;;8.40;4.78;;;;;;;;;;10451280;28;20037;-81
2023/08/07 09:17:44;;;;;;;7.53;3.50;;;;;;;;;;10449777;28;20033;-81
2023/08/07 09:23:08;;;;;;;6.15;3.55;;;;;;;;;;10467150;28;20037;-81
2023/08/07 09:28:10;;;;;;;6.32;2.72;;;;;;;;;;10465644;28;20037;-81
2023/08/07 09:33:11;;;;;;;5.60;2.60;;;;;;;;;;10443270;28;20040;-82
2023/08/07 09:38:14;;;;;;;7.75;3.22;;;;;;;;;;10446748;28;20029;-82
2023/08/07 09:43:21;;;;;;;5.50;2.60;;;;;;;;;;10461706;28;20029;-80
2023/08/07 09:48:27;;;;;;;7.88;3.28;;;;;;;;;;10450215;28;20041;-81
2023/08/07 09:53:28;;;;;;;8.63;2.85;;;;;;;;;;10447475;28;20041;-80
2023/08/07 09:58:30;;;;;;;6.28;2.60;;;;;;;;;;10447775;28;20041;-81
2023/08/07 10:03:32;;;;;;;8.80;3.53;;;;;;;;;;10462950;28;20408;-80
2023/08/07 10:08:35;;;;;;;6.43;3.10;;;;;;;;;;10447656;28;20037;-80
2023/08/07 10:13:59;;;;;;;7.38;3.33;;;;;;;;;;10448377;28;20033;-82
2023/08/07 10:19:05;;;;;;;6.78;3.00;;;;;;;;;;10457833;28;20063;-81
2023/08/07 10:24:06;;;;;;;8.52;3.30;;;;;;;;;;10446418;28;20082;-80
2023/08/07 10:29:26;;;;;;;6.03;2.33;;;;;;;;;;10458425;28;20045;-82
2023/08/07 10:34:30;;;;;;;5.57;2.80;;;;;;;;;;10446939;28;20372;-80
2023/08/07 10:39:32;;;;;;;6.20;2.60;;;;;;;;;;10437233;28;20202;-80
2023/08/07 10:44:33;;;;;;;5.50;2.60;;;;;;;;;;10452669;28;20048;-82
2023/08/07 10:49:41;;;;;;;5.43;2.70;;;;;;;;;;10450463;28;20512;-82
2023/08/07 10:54:49;;;;;;;6.22;2.78;;;;;;;;;;10435049;28;20051;-80
2023/08/07 11:05:22;;;;;;;4.53;2.60;;;;;;;;;;10472207;28;20409;-84
2023/08/07 11:10:25;;;;;;;5.40;2.50;;;;;;;;;;10452603;28;20029;-83
2023/08/07 11:15:26;;;;;;;6.18;2.47;;;;;;;;;;10456210;28;20075;-82
2023/08/07 11:20:28;;;;;;;4.70;2.15;;;;;;;;;;10450510;28;20031;-81
2023/08/07 11:25:31;;;;;;;5.88;2.60;;;;;;;;;;10449732;28;20037;-82
2023/08/07 11:30:35;;;;;;;6.70;2.35;;;;;;;;;;10449109;28;20048;-82
2023/08/07 11:35:41;;;;;;;4.60;2.38;;;;;;;;;;10448374;28;20059;-82
2023/08/07 11:40:43;;;;;;;7.63;2.70;;;;;;;;;;10477665;28;20036;-82
2023/08/07 11:45:44;;;;;;;5.90;2.58;;;;;;;;;;10507266;28;20048;-84
2023/08/07 11:51:07;;;;;;;5.57;2.35;;;;;;;;;;10464079;28;20060;-82
2023/08/07 11:56:20;;;;;;;5.22;2.15;;;;;;;;;;10453716;28;20400;-84
2023/08/07 12:01:22;;;;;;;5.88;2.30;;;;;;;;;;10466764;28;20029;-84
2023/08/07 12:06:30;;;;;;;8.07;2.10;;;;;;;;;;10449412;28;20036;-82
2023/08/07 12:11:31;;;;;;;4.18;2.05;;;;;;;;;;10477852;23;20519;-85
2023/08/07 12:16:35;;;;;;;6.65;2.28;;;;;;;;;;10456876;28;20134;-83
2023/08/07 12:21:39;;;;;;;6.45;2.10;;;;;;;;;;10467883;28;20036;-85
2023/08/07 12:26:40;;;;;;;5.43;2.38;;;;;;;;;;10475617;28;20179;-84
2023/08/07 12:31:50;;;;;;;4.38;2.25;;;;;;;;;;10476694;28;20034;-86
2023/08/07 12:37:02;;;;;;;5.05;2.10;;;;;;;;;;10501892;28;20081;-86
2023/08/07 12:42:06;;;;;;;4.80;2.10;;;;;;;;;;10505775;28;20021;-86
2023/08/07 12:47:27;;;;;;;5.95;2.85;;;;;;;;;;10495953;28;20040;-83
2023/08/07 12:52:28;;;;;;;5.68;2.22;;;;;;;;;;10489027;28;20029;-86
2023/08/07 12:57:30;;;;;;;6.20;2.00;;;;;;;;;;10487522;28;20041;-85
2023/08/07 13:02:58;;;;;;;8.10;2.53;;;;;;;;;;10469236;28;20032;-88
2023/08/07 13:08:37;;;;;;;4.93;2.55;;;;;;;;;;10469501;28;20060;-87
2023/08/07 13:13:59;;;;;;;5.00;2.22;;;;;;;;;;10470836;28;20069;-86
2023/08/07 13:19:06;;;;;;;3.65;1.80;;;;;;;;;;10470359;28;20105;-88
2023/08/07 13:30:17;;;;;;;4.72;2.03;;;;;;;;;;10469413;28;20115;-86
2023/08/07 13:35:50;;;;;;;5.88;2.50;;;;;;;;;;10469844;28;20413;-86
2023/08/07 13:41:02;;;;;;;5.43;2.10;;;;;;;;;;10470002;28;20033;-87
2023/08/07 13:51:56;;;;;;;8.02;2.50;;;;;;;;;;10500435;28;20041;-84
2023/08/07 13:56:59;;;;;;;6.68;2.42;;;;;;;;;;10491698;28;20500;-87
2023/08/07 14:13:26;;;;;;;6.07;2.03;;;;;;;;;;10512115;28;20041;-85
2023/08/07 14:19:04;;;;;;;4.93;1.93;;;;;;;;;;10511168;28;20045;-86
2023/08/07 14:24:46;;;;;;;4.38;2.10;;;;;;;;;;10475131;28;20025;-86
2023/08/07 14:30:39;;;;;;;4.35;2.20;;;;;;;;;;10438270;28;20053;-86
2023/08/07 14:36:00;;;;;;;6.30;2.05;;;;;;;;;;10437864;28;20025;-83
2023/08/07 14:46:47;;;;;;;5.35;2.15;;;;;;;;;;10489499;28;20037;-86
2023/08/07 14:51:50;;;;;;;6.93;2.35;;;;;;;;;;10485553;28;20032;-85
2023/08/07 14:57:12;;;;;;;4.47;1.95;;;;;;;;;;10506049;28;20045;-82
2023/08/07 15:02:14;;;;;;;5.28;2.17;;;;;;;;;;10478177;28;20403;-85
2023/08/07 15:07:15;;;;;;;7.53;2.67;;;;;;;;;;10476246;28;20036;-83
2023/08/07 15:12:16;;;;;;;6.55;2.05;;;;;;;;;;10472243;28;20063;-84
2023/08/07 15:17:18;;;;;;;3.83;1.80;;;;;;;;;;10468101;28;20056;-86
2023/08/07 15:22:21;;;;;;;8.30;2.17;;;;;;;;;;10469934;28;20025;-85
2023/08/07 15:27:34;;;;;;;6.28;2.20;;;;;;;;;;10484095;28;20041;-85
2023/08/07 15:32:35;;;;;;;3.88;2.10;;;;;;;;;;10505805;28;20051;-84
2023/08/07 15:37:36;;;;;;;3.88;2.13;;;;;;;;;;10475385;28;20037;-85
2023/08/07 15:42:48;;;;;;;3.60;1.88;;;;;;;;;;10480548;28;20615;-85
2023/08/07 15:47:49;;;;;;;4.53;1.90;;;;;;;;;;10481478;28;20032;-85
2023/08/07 15:52:53;;;;;;;5.93;3.83;;;;;;;;;;10481693;28;20032;-85
2023/08/07 15:58:05;;;;;;;3.25;1.70;;;;;;;;;;10470207;28;20033;-86
2023/08/07 16:03:08;;;;;;;2.78;1.58;;;;;;;;;;10491736;28;20105;-86
2023/08/07 16:08:20;;;;;;;3.03;1.80;;;;;;;;;;10480380;28;20029;-87
2023/08/07 16:13:23;;;;;;;3.10;1.75;;;;;;;;;;10440331;28;20033;-86
2023/08/07 16:18:24;;;;;;;2.63;1.58;;;;;;;;;;10481329;28;20048;-83
2023/08/07 16:23:51;;;;;;;5.28;1.67;;;;;;;;;;10468681;28;20033;-88
2023/08/07 16:28:53;;;;;;;3.35;1.30;;;;;;;;;;10468113;28;20037;-86
2023/08/07 16:34:08;;;;;;;2.25;1.33;;;;;;;;;;10467728;28;20033;-85
2023/08/07 16:39:14;;;;;;;5.07;1.70;;;;;;;;;;10462257;28;20044;-88
2023/08/07 16:44:21;;;;;;;3.42;1.70;;;;;;;;;;10467460;28;20056;-86
2023/08/07 16:49:22;;;;;;;4.35;1.83;;;;;;;;;;10465791;28;20056;-87
2023/08/07 16:54:23;;;;;;;5.38;2.90;;;;;;;;;;10468238;28;20033;-86
2023/08/07 16:59:24;;;;;;;48.78;41.28;;;;;;;;;;10471319;28;20179;-87
2023/08/07 17:04:29;;;;;;;4.50;1.80;;;;;;;;;;10474492;28;20043;-86
2023/08/07 17:09:30;;;;;;;4.20;2.03;;;;;;;;;;10482081;28;20477;-86
2023/08/07 17:14:31;;;;;;;5.65;2.40;;;;;;;;;;10465635;28;20518;-86
2023/08/07 17:19:32;;;;;;;5.70;2.25;;;;;;;;;;10466312;28;20071;-87
2023/08/07 17:24:33;;;;;;;3.67;2.03;;;;;;;;;;10470079;28;20497;-85
2023/08/07 17:29:34;;;;;;;5.05;1.92;;;;;;;;;;10468092;28;20056;-85
2023/08/07 17:34:35;;;;;;;4.05;2.22;;;;;;;;;;10468052;28;20072;-85
2023/08/07 17:39:36;;;;;;;4.38;1.98;;;;;;;;;;10477124;28;20045;-85
2023/08/07 17:44:37;;;;;;;4.72;1.98;;;;;;;;;;10482452;28;20037;-84
2023/08/07 17:49:40;;;;;;;4.47;2.13;;;;;;;;;;10461818;28;20125;-85
2023/08/07 17:54:41;;;;;;;2.83;1.77;;;;;;;;;;10460935;28;20035;-85
2023/08/07 17:59:42;;;;;;;2.90;1.75;;;;;;;;;;10462060;28;20079;-85
2023/08/07 18:04:43;;;;;;;2.70;1.40;;;;;;;;;;10461884;28;20053;-85
2023/08/07 18:09:44;;;;;;;3.25;1.58;;;;;;;;;;10466476;28;20060;-85
2023/08/07 18:14:45;;;;;;;3.03;1.63;;;;;;;;;;10480704;28;20033;-84
2023/08/07 18:19:46;;;;;;;3.10;1.63;;;;;;;;;;10482297;28;20373;-85
2023/08/07 18:24:48;;;;;;;2.85;1.73;;;;;;;;;;10465274;28;20142;-85
2023/08/07 18:29:49;;;;;;;3.53;1.60;;;;;;;;;;10465009;28;20485;-84
2023/08/07 18:34:50;;;;;;;3.20;1.70;;;;;;;;;;10467339;28;20037;-84
2023/08/07 18:39:51;;;;;;;3.70;1.70;;;;;;;;;;10469175;28;20037;-85
2023/08/07 18:44:52;;;;;;;4.50;1.77;;;;;;;;;;10469156;28;20033;-83
2023/08/07 18:49:53;;;;;;;3.60;2.10;;;;;;;;;;10470327;28;20032;-84
2023/08/07 18:54:55;;;;;;;3.28;1.42;;;;;;;;;;10469636;28;20528;-83
2023/08/07 18:59:56;;;;;;;2.55;1.77;;;;;;;;;;10476738;28;20037;-83
2023/08/07 19:04:57;;;;;;;3.67;1.90;;;;;;;;;;10480661;28;20211;-83
2023/08/07 19:09:58;;;;;;;2.63;1.60;;;;;;;;;;10477613;28;20109;-83
